sensor_id;sensor_type;location;lat;lon;timestamp;P1;durP1;ratioP1;P2;durP2;ratioP2
71166;SDS011;58864;45.928;20.078;2024-03-02T00:01:08;28.60;;;12.40;;
71166;SDS011;58864;45.928;20.078;2024-03-02T00:03:36;26.90;;;13.00;;
71166;SDS011;58864;45.928;20.078;2024-03-02T00:06:02;27.15;;;13.02;;
71166;SDS011;58864;45.928;20.078;2024-03-02T00:08:28;29.70;;;12.95;;
71166;SDS011;58864;45.928;20.078;2024-03-02T00:10:57;26.48;;;11.63;;
71166;SDS011;58864;45.928;20.078;2024-03-02T00:13:23;26.03;;;12.93;;
71166;SDS011;58864;45.928;20.078;2024-03-02T00:15:51;25.85;;;12.23;;
71166;SDS011;58864;45.928;20.078;2024-03-02T00:18:20;26.02;;;12.65;;
71166;SDS011;58864;45.928;20.078;2024-03-02T00:20:47;26.10;;;12.32;;
71166;SDS011;58864;45.928;20.078;2024-03-02T00:23:14;24.15;;;11.95;;
71166;SDS011;58864;45.928;20.078;2024-03-02T00:25:45;29.07;;;12.03;;
71166;SDS011;58864;45.928;20.078;2024-03-02T00:28:23;26.33;;;12.68;;
71166;SDS011;58864;45.928;20.078;2024-03-02T00:30:59;30.02;;;12.00;;
71166;SDS011;58864;45.928;20.078;2024-03-02T00:33:36;24.05;;;11.63;;
71166;SDS011;58864;45.928;20.078;2024-03-02T00:36:07;26.77;;;12.23;;
71166;SDS011;58864;45.928;20.078;2024-03-02T00:38:34;25.80;;;11.73;;
71166;SDS011;58864;45.928;20.078;2024-03-02T00:41:04;25.15;;;12.40;;
71166;SDS011;58864;45.928;20.078;2024-03-02T00:43:57;28.80;;;12.73;;
71166;SDS011;58864;45.928;20.078;2024-03-02T00:46:27;31.92;;;13.15;;
71166;SDS011;58864;45.928;20.078;2024-03-02T00:49:05;29.00;;;12.27;;
71166;SDS011;58864;45.928;20.078;2024-03-02T00:51:40;26.70;;;12.23;;
71166;SDS011;58864;45.928;20.078;2024-03-02T00:54:07;25.35;;;11.63;;
71166;SDS011;58864;45.928;20.078;2024-03-02T00:56:33;27.95;;;12.95;;
71166;SDS011;58864;45.928;20.078;2024-03-02T00:59:00;25.02;;;12.02;;
71166;SDS011;58864;45.928;20.078;2024-03-02T01:01:26;24.35;;;11.63;;
71166;SDS011;58864;45.928;20.078;2024-03-02T01:03:52;24.80;;;12.00;;
71166;SDS011;58864;45.928;20.078;2024-03-02T01:06:22;27.75;;;12.20;;
71166;SDS011;58864;45.928;20.078;2024-03-02T01:08:50;26.02;;;12.05;;
71166;SDS011;58864;45.928;20.078;2024-03-02T01:11:28;24.42;;;11.68;;
71166;SDS011;58864;45.928;20.078;2024-03-02T01:13:55;25.90;;;11.63;;
71166;SDS011;58864;45.928;20.078;2024-03-02T01:16:21;22.73;;;10.77;;
71166;SDS011;58864;45.928;20.078;2024-03-02T01:18:47;23.42;;;11.65;;
71166;SDS011;58864;45.928;20.078;2024-03-02T01:21:14;21.88;;;11.00;;
71166;SDS011;58864;45.928;20.078;2024-03-02T01:23:43;23.20;;;11.07;;
71166;SDS011;58864;45.928;20.078;2024-03-02T01:26:09;21.35;;;11.20;;
71166;SDS011;58864;45.928;20.078;2024-03-02T01:28:43;22.00;;;10.90;;
71166;SDS011;58864;45.928;20.078;2024-03-02T01:31:09;18.10;;;10.35;;
71166;SDS011;58864;45.928;20.078;2024-03-02T01:33:35;18.35;;;10.10;;
71166;SDS011;58864;45.928;20.078;2024-03-02T01:36:01;22.63;;;10.52;;
71166;SDS011;58864;45.928;20.078;2024-03-02T01:38:28;22.13;;;10.95;;
71166;SDS011;58864;45.928;20.078;2024-03-02T01:40:57;23.23;;;11.77;;
71166;SDS011;58864;45.928;20.078;2024-03-02T01:43:23;21.38;;;10.75;;
71166;SDS011;58864;45.928;20.078;2024-03-02T01:45:50;20.08;;;11.25;;
71166;SDS011;58864;45.928;20.078;2024-03-02T01:48:17;20.25;;;10.75;;
71166;SDS011;58864;45.928;20.078;2024-03-02T01:50:43;22.40;;;10.25;;
71166;SDS011;58864;45.928;20.078;2024-03-02T01:53:09;20.97;;;11.03;;
71166;SDS011;58864;45.928;20.078;2024-03-02T01:55:35;22.85;;;11.27;;
71166;SDS011;58864;45.928;20.078;2024-03-02T01:58:03;21.50;;;11.02;;
71166;SDS011;58864;45.928;20.078;2024-03-02T02:00:31;21.25;;;10.73;;
71166;SDS011;58864;45.928;20.078;2024-03-02T02:02:57;23.70;;;11.05;;
71166;SDS011;58864;45.928;20.078;2024-03-02T02:05:23;22.30;;;10.77;;
71166;SDS011;58864;45.928;20.078;2024-03-02T02:07:49;23.73;;;10.98;;
71166;SDS011;58864;45.928;20.078;2024-03-02T02:10:15;21.40;;;11.82;;
71166;SDS011;58864;45.928;20.078;2024-03-02T02:12:42;23.55;;;11.48;;
71166;SDS011;58864;45.928;20.078;2024-03-02T02:15:24;23.05;;;10.88;;
71166;SDS011;58864;45.928;20.078;2024-03-02T02:17:50;22.10;;;10.30;;
71166;SDS011;58864;45.928;20.078;2024-03-02T02:20:17;20.65;;;11.02;;
71166;SDS011;58864;45.928;20.078;2024-03-02T02:22:54;23.75;;;10.65;;
71166;SDS011;58864;45.928;20.078;2024-03-02T02:25:23;20.92;;;10.73;;
71166;SDS011;58864;45.928;20.078;2024-03-02T02:27:49;20.35;;;10.75;;
71166;SDS011;58864;45.928;20.078;2024-03-02T02:30:20;20.23;;;10.30;;
71166;SDS011;58864;45.928;20.078;2024-03-02T02:32:49;20.45;;;10.27;;
71166;SDS011;58864;45.928;20.078;2024-03-02T02:35:15;20.50;;;9.82;;
71166;SDS011;58864;45.928;20.078;2024-03-02T02:37:42;18.48;;;9.77;;
71166;SDS011;58864;45.928;20.078;2024-03-02T02:40:13;19.73;;;9.18;;
71166;SDS011;58864;45.928;20.078;2024-03-02T02:42:40;19.03;;;9.97;;
71166;SDS011;58864;45.928;20.078;2024-03-02T02:45:07;20.17;;;9.10;;
71166;SDS011;58864;45.928;20.078;2024-03-02T02:47:35;17.15;;;8.80;;
71166;SDS011;58864;45.928;20.078;2024-03-02T02:50:01;16.90;;;9.32;;
71166;SDS011;58864;45.928;20.078;2024-03-02T02:52:30;19.35;;;9.23;;
71166;SDS011;58864;45.928;20.078;2024-03-02T02:54:59;18.27;;;8.70;;
71166;SDS011;58864;45.928;20.078;2024-03-02T02:57:28;18.02;;;9.02;;
71166;SDS011;58864;45.928;20.078;2024-03-02T02:59:59;18.02;;;8.77;;
71166;SDS011;58864;45.928;20.078;2024-03-02T03:02:25;19.20;;;8.65;;
71166;SDS011;58864;45.928;20.078;2024-03-02T03:04:53;17.85;;;8.80;;
71166;SDS011;58864;45.928;20.078;2024-03-02T03:07:21;18.10;;;8.23;;
71166;SDS011;58864;45.928;20.078;2024-03-02T03:09:47;18.00;;;8.05;;
71166;SDS011;58864;45.928;20.078;2024-03-02T03:12:13;15.38;;;7.95;;
71166;SDS011;58864;45.928;20.078;2024-03-02T03:14:41;15.63;;;7.60;;
71166;SDS011;58864;45.928;20.078;2024-03-02T03:17:08;14.77;;;7.63;;
71166;SDS011;58864;45.928;20.078;2024-03-02T03:19:34;15.47;;;7.47;;
71166;SDS011;58864;45.928;20.078;2024-03-02T03:22:01;16.08;;;7.72;;
71166;SDS011;58864;45.928;20.078;2024-03-02T03:24:27;15.00;;;7.55;;
71166;SDS011;58864;45.928;20.078;2024-03-02T03:26:54;16.08;;;8.20;;
71166;SDS011;58864;45.928;20.078;2024-03-02T03:29:20;14.45;;;7.72;;
71166;SDS011;58864;45.928;20.078;2024-03-02T03:31:47;14.17;;;7.10;;
71166;SDS011;58864;45.928;20.078;2024-03-02T03:34:13;15.98;;;7.40;;
71166;SDS011;58864;45.928;20.078;2024-03-02T03:36:40;15.25;;;7.45;;
71166;SDS011;58864;45.928;20.078;2024-03-02T03:39:06;15.02;;;7.80;;
71166;SDS011;58864;45.928;20.078;2024-03-02T03:41:32;15.27;;;7.72;;
71166;SDS011;58864;45.928;20.078;2024-03-02T03:43:58;16.13;;;7.93;;
71166;SDS011;58864;45.928;20.078;2024-03-02T03:46:24;17.08;;;7.50;;
71166;SDS011;58864;45.928;20.078;2024-03-02T03:48:52;18.50;;;8.07;;
71166;SDS011;58864;45.928;20.078;2024-03-02T03:51:20;15.88;;;8.05;;
71166;SDS011;58864;45.928;20.078;2024-03-02T03:53:46;15.50;;;8.00;;
71166;SDS011;58864;45.928;20.078;2024-03-02T03:56:18;17.47;;;8.27;;
71166;SDS011;58864;45.928;20.078;2024-03-02T03:58:53;16.25;;;7.50;;
71166;SDS011;58864;45.928;20.078;2024-03-02T04:05:01;16.02;;;7.57;;
71166;SDS011;58864;45.928;20.078;2024-03-02T04:08:55;15.70;;;7.55;;
71166;SDS011;58864;45.928;20.078;2024-03-02T04:10:58;14.40;;;6.97;;
71166;SDS011;58864;45.928;20.078;2024-03-02T04:13:43;16.08;;;8.32;;
71166;SDS011;58864;45.928;20.078;2024-03-02T04:16:26;17.45;;;8.15;;
71166;SDS011;58864;45.928;20.078;2024-03-02T04:18:52;14.70;;;7.70;;
71166;SDS011;58864;45.928;20.078;2024-03-02T04:21:22;15.18;;;7.60;;
71166;SDS011;58864;45.928;20.078;2024-03-02T04:23:53;14.57;;;7.63;;
71166;SDS011;58864;45.928;20.078;2024-03-02T04:26:22;16.60;;;8.02;;
71166;SDS011;58864;45.928;20.078;2024-03-02T04:28:49;14.52;;;7.40;;
71166;SDS011;58864;45.928;20.078;2024-03-02T04:31:15;17.65;;;8.35;;
71166;SDS011;58864;45.928;20.078;2024-03-02T04:33:49;15.23;;;7.38;;
71166;SDS011;58864;45.928;20.078;2024-03-02T04:36:41;17.43;;;7.80;;
71166;SDS011;58864;45.928;20.078;2024-03-02T04:39:32;15.30;;;7.85;;
71166;SDS011;58864;45.928;20.078;2024-03-02T04:42:34;14.90;;;7.95;;
71166;SDS011;58864;45.928;20.078;2024-03-02T04:45:20;19.05;;;7.90;;
71166;SDS011;58864;45.928;20.078;2024-03-02T04:51:30;16.10;;;7.40;;
71166;SDS011;58864;45.928;20.078;2024-03-02T04:54:10;16.70;;;8.48;;
71166;SDS011;58864;45.928;20.078;2024-03-02T04:56:45;15.88;;;7.68;;
71166;SDS011;58864;45.928;20.078;2024-03-02T04:59:14;15.60;;;8.30;;
71166;SDS011;58864;45.928;20.078;2024-03-02T05:01:41;16.95;;;7.70;;
71166;SDS011;58864;45.928;20.078;2024-03-02T05:04:11;14.87;;;7.50;;
71166;SDS011;58864;45.928;20.078;2024-03-02T05:06:41;15.90;;;7.38;;
71166;SDS011;58864;45.928;20.078;2024-03-02T05:09:08;19.65;;;7.72;;
71166;SDS011;58864;45.928;20.078;2024-03-02T05:11:33;16.50;;;7.55;;
71166;SDS011;58864;45.928;20.078;2024-03-02T05:14:17;16.02;;;7.72;;
71166;SDS011;58864;45.928;20.078;2024-03-02T05:16:44;16.37;;;8.20;;
71166;SDS011;58864;45.928;20.078;2024-03-02T05:19:10;14.55;;;7.78;;
71166;SDS011;58864;45.928;20.078;2024-03-02T05:21:36;15.85;;;7.65;;
71166;SDS011;58864;45.928;20.078;2024-03-02T05:24:03;15.02;;;7.78;;
71166;SDS011;58864;45.928;20.078;2024-03-02T05:26:29;15.95;;;8.05;;
71166;SDS011;58864;45.928;20.078;2024-03-02T05:28:55;16.30;;;8.10;;
71166;SDS011;58864;45.928;20.078;2024-03-02T05:31:21;14.77;;;7.40;;
71166;SDS011;58864;45.928;20.078;2024-03-02T05:33:48;16.50;;;8.07;;
71166;SDS011;58864;45.928;20.078;2024-03-02T05:36:14;16.00;;;7.30;;
71166;SDS011;58864;45.928;20.078;2024-03-02T05:38:40;13.60;;;6.70;;
71166;SDS011;58864;45.928;20.078;2024-03-02T05:41:07;13.60;;;7.07;;
71166;SDS011;58864;45.928;20.078;2024-03-02T05:43:33;16.33;;;7.18;;
71166;SDS011;58864;45.928;20.078;2024-03-02T05:45:59;21.67;;;9.77;;
71166;SDS011;58864;45.928;20.078;2024-03-02T05:48:25;20.15;;;9.38;;
71166;SDS011;58864;45.928;20.078;2024-03-02T05:50:51;20.27;;;9.32;;
71166;SDS011;58864;45.928;20.078;2024-03-02T05:53:16;18.63;;;8.60;;
71166;SDS011;58864;45.928;20.078;2024-03-02T05:55:42;19.20;;;8.77;;
71166;SDS011;58864;45.928;20.078;2024-03-02T05:58:10;15.50;;;7.95;;
71166;SDS011;58864;45.928;20.078;2024-03-02T06:00:50;18.27;;;8.25;;
71166;SDS011;58864;45.928;20.078;2024-03-02T06:03:15;24.15;;;9.80;;
71166;SDS011;58864;45.928;20.078;2024-03-02T06:05:41;19.97;;;9.07;;
71166;SDS011;58864;45.928;20.078;2024-03-02T06:08:08;18.10;;;8.63;;
71166;SDS011;58864;45.928;20.078;2024-03-02T06:10:34;17.27;;;8.82;;
71166;SDS011;58864;45.928;20.078;2024-03-02T06:13:00;17.02;;;8.18;;
71166;SDS011;58864;45.928;20.078;2024-03-02T06:15:28;18.90;;;8.20;;
71166;SDS011;58864;45.928;20.078;2024-03-02T06:17:54;17.70;;;8.37;;
71166;SDS011;58864;45.928;20.078;2024-03-02T06:20:19;16.33;;;7.97;;
71166;SDS011;58864;45.928;20.078;2024-03-02T06:22:46;17.70;;;8.13;;
71166;SDS011;58864;45.928;20.078;2024-03-02T06:25:12;16.38;;;7.95;;
71166;SDS011;58864;45.928;20.078;2024-03-02T06:27:38;15.73;;;7.78;;
71166;SDS011;58864;45.928;20.078;2024-03-02T06:30:04;13.87;;;6.90;;
71166;SDS011;58864;45.928;20.078;2024-03-02T06:32:32;15.48;;;7.00;;
71166;SDS011;58864;45.928;20.078;2024-03-02T06:34:58;14.75;;;7.03;;
71166;SDS011;58864;45.928;20.078;2024-03-02T06:37:24;14.43;;;7.28;;
71166;SDS011;58864;45.928;20.078;2024-03-02T06:39:55;14.02;;;7.13;;
71166;SDS011;58864;45.928;20.078;2024-03-02T06:42:21;16.07;;;7.43;;
71166;SDS011;58864;45.928;20.078;2024-03-02T06:44:48;16.48;;;7.63;;
71166;SDS011;58864;45.928;20.078;2024-03-02T06:47:14;16.55;;;7.70;;
71166;SDS011;58864;45.928;20.078;2024-03-02T06:49:42;16.33;;;8.02;;
71166;SDS011;58864;45.928;20.078;2024-03-02T06:52:08;16.23;;;7.40;;
71166;SDS011;58864;45.928;20.078;2024-03-02T06:54:34;16.10;;;7.53;;
71166;SDS011;58864;45.928;20.078;2024-03-02T06:57:00;14.38;;;7.13;;
71166;SDS011;58864;45.928;20.078;2024-03-02T06:59:26;14.20;;;7.50;;
71166;SDS011;58864;45.928;20.078;2024-03-02T07:01:51;15.13;;;6.72;;
71166;SDS011;58864;45.928;20.078;2024-03-02T07:04:17;15.27;;;7.15;;
71166;SDS011;58864;45.928;20.078;2024-03-02T07:06:44;14.20;;;6.63;;
71166;SDS011;58864;45.928;20.078;2024-03-02T07:09:10;12.80;;;6.65;;
71166;SDS011;58864;45.928;20.078;2024-03-02T07:11:36;13.77;;;6.55;;
71166;SDS011;58864;45.928;20.078;2024-03-02T07:14:02;16.52;;;6.55;;
71166;SDS011;58864;45.928;20.078;2024-03-02T07:16:28;12.68;;;6.05;;
71166;SDS011;58864;45.928;20.078;2024-03-02T07:18:57;14.20;;;5.67;;
71166;SDS011;58864;45.928;20.078;2024-03-02T07:21:23;13.27;;;6.43;;
71166;SDS011;58864;45.928;20.078;2024-03-02T07:23:50;12.43;;;5.93;;
71166;SDS011;58864;45.928;20.078;2024-03-02T07:26:16;10.82;;;4.80;;
71166;SDS011;58864;45.928;20.078;2024-03-02T07:28:43;12.45;;;5.32;;
71166;SDS011;58864;45.928;20.078;2024-03-02T07:31:10;10.47;;;4.60;;
71166;SDS011;58864;45.928;20.078;2024-03-02T07:33:36;9.80;;;4.00;;
71166;SDS011;58864;45.928;20.078;2024-03-02T07:36:02;12.10;;;4.72;;
71166;SDS011;58864;45.928;20.078;2024-03-02T07:38:28;12.77;;;5.13;;
71166;SDS011;58864;45.928;20.078;2024-03-02T07:40:55;12.38;;;5.40;;
71166;SDS011;58864;45.928;20.078;2024-03-02T07:43:21;13.33;;;6.13;;
71166;SDS011;58864;45.928;20.078;2024-03-02T07:45:47;11.68;;;5.93;;
71166;SDS011;58864;45.928;20.078;2024-03-02T07:48:13;14.50;;;6.15;;
71166;SDS011;58864;45.928;20.078;2024-03-02T07:50:40;13.77;;;5.72;;
71166;SDS011;58864;45.928;20.078;2024-03-02T07:53:07;15.13;;;6.13;;
71166;SDS011;58864;45.928;20.078;2024-03-02T07:55:33;16.40;;;6.47;;
71166;SDS011;58864;45.928;20.078;2024-03-02T07:58:00;12.95;;;5.35;;
71166;SDS011;58864;45.928;20.078;2024-03-02T08:00:26;9.82;;;5.15;;
71166;SDS011;58864;45.928;20.078;2024-03-02T08:02:52;10.60;;;4.90;;
71166;SDS011;58864;45.928;20.078;2024-03-02T08:05:19;12.15;;;4.82;;
71166;SDS011;58864;45.928;20.078;2024-03-02T08:07:45;13.13;;;5.30;;
71166;SDS011;58864;45.928;20.078;2024-03-02T08:10:11;10.98;;;5.00;;
71166;SDS011;58864;45.928;20.078;2024-03-02T08:12:37;10.32;;;4.95;;
71166;SDS011;58864;45.928;20.078;2024-03-02T08:15:05;10.90;;;4.85;;
71166;SDS011;58864;45.928;20.078;2024-03-02T08:17:32;12.10;;;4.90;;
71166;SDS011;58864;45.928;20.078;2024-03-02T08:19:57;13.17;;;4.77;;
71166;SDS011;58864;45.928;20.078;2024-03-02T08:22:23;11.93;;;5.40;;
71166;SDS011;58864;45.928;20.078;2024-03-02T08:24:50;14.43;;;6.10;;
71166;SDS011;58864;45.928;20.078;2024-03-02T08:27:16;9.45;;;4.63;;
71166;SDS011;58864;45.928;20.078;2024-03-02T08:29:42;10.02;;;4.00;;
71166;SDS011;58864;45.928;20.078;2024-03-02T08:32:09;10.07;;;4.40;;
71166;SDS011;58864;45.928;20.078;2024-03-02T08:34:35;13.77;;;5.55;;
71166;SDS011;58864;45.928;20.078;2024-03-02T08:37:01;14.13;;;6.13;;
71166;SDS011;58864;45.928;20.078;2024-03-02T08:39:27;19.45;;;7.07;;
71166;SDS011;58864;45.928;20.078;2024-03-02T08:41:53;15.75;;;6.50;;
71166;SDS011;58864;45.928;20.078;2024-03-02T08:44:19;18.40;;;7.33;;
71166;SDS011;58864;45.928;20.078;2024-03-02T08:46:45;21.02;;;7.22;;
71166;SDS011;58864;45.928;20.078;2024-03-02T08:49:13;19.83;;;7.00;;
71166;SDS011;58864;45.928;20.078;2024-03-02T08:51:39;16.17;;;7.13;;
71166;SDS011;58864;45.928;20.078;2024-03-02T08:54:05;14.13;;;5.80;;
71166;SDS011;58864;45.928;20.078;2024-03-02T08:56:31;11.80;;;5.17;;
71166;SDS011;58864;45.928;20.078;2024-03-02T08:58:57;12.57;;;5.88;;
71166;SDS011;58864;45.928;20.078;2024-03-02T09:01:22;11.55;;;5.50;;
71166;SDS011;58864;45.928;20.078;2024-03-02T09:03:48;14.75;;;6.07;;
71166;SDS011;58864;45.928;20.078;2024-03-02T09:06:16;11.38;;;5.07;;
71166;SDS011;58864;45.928;20.078;2024-03-02T09:08:43;12.57;;;5.60;;
71166;SDS011;58864;45.928;20.078;2024-03-02T09:11:09;17.88;;;6.50;;
71166;SDS011;58864;45.928;20.078;2024-03-02T09:13:36;15.45;;;6.60;;
71166;SDS011;58864;45.928;20.078;2024-03-02T09:16:02;13.07;;;6.53;;
71166;SDS011;58864;45.928;20.078;2024-03-02T09:18:29;13.23;;;5.32;;
71166;SDS011;58864;45.928;20.078;2024-03-02T09:20:55;12.77;;;4.93;;
71166;SDS011;58864;45.928;20.078;2024-03-02T09:23:22;11.85;;;5.22;;
71166;SDS011;58864;45.928;20.078;2024-03-02T09:25:48;13.60;;;5.00;;
71166;SDS011;58864;45.928;20.078;2024-03-02T09:28:15;12.60;;;5.35;;
71166;SDS011;58864;45.928;20.078;2024-03-02T09:30:41;13.77;;;5.30;;
71166;SDS011;58864;45.928;20.078;2024-03-02T09:33:07;12.87;;;5.10;;
71166;SDS011;58864;45.928;20.078;2024-03-02T09:35:33;12.90;;;5.10;;
71166;SDS011;58864;45.928;20.078;2024-03-02T09:38:01;16.50;;;6.20;;
71166;SDS011;58864;45.928;20.078;2024-03-02T09:40:29;16.98;;;6.22;;
71166;SDS011;58864;45.928;20.078;2024-03-02T09:42:55;19.98;;;7.40;;
71166;SDS011;58864;45.928;20.078;2024-03-02T09:45:22;16.77;;;6.83;;
71166;SDS011;58864;45.928;20.078;2024-03-02T09:47:49;17.85;;;6.03;;
71166;SDS011;58864;45.928;20.078;2024-03-02T09:50:15;11.00;;;5.50;;
71166;SDS011;58864;45.928;20.078;2024-03-02T09:52:41;17.58;;;6.85;;
71166;SDS011;58864;45.928;20.078;2024-03-02T09:55:07;12.00;;;5.72;;
71166;SDS011;58864;45.928;20.078;2024-03-02T09:57:35;15.63;;;6.93;;
71166;SDS011;58864;45.928;20.078;2024-03-02T10:00:01;12.13;;;6.35;;
71166;SDS011;58864;45.928;20.078;2024-03-02T10:02:27;25.15;;;9.38;;
71166;SDS011;58864;45.928;20.078;2024-03-02T10:04:53;16.35;;;7.05;;
71166;SDS011;58864;45.928;20.078;2024-03-02T10:07:19;11.32;;;5.00;;
71166;SDS011;58864;45.928;20.078;2024-03-02T10:09:45;14.80;;;5.67;;
71166;SDS011;58864;45.928;20.078;2024-03-02T10:12:13;12.57;;;5.00;;
71166;SDS011;58864;45.928;20.078;2024-03-02T10:14:41;14.13;;;5.80;;
71166;SDS011;58864;45.928;20.078;2024-03-02T10:17:07;13.13;;;5.20;;
71166;SDS011;58864;45.928;20.078;2024-03-02T10:19:34;15.15;;;6.35;;
71166;SDS011;58864;45.928;20.078;2024-03-02T10:22:01;19.87;;;9.00;;
71166;SDS011;58864;45.928;20.078;2024-03-02T10:24:28;17.65;;;7.03;;
71166;SDS011;58864;45.928;20.078;2024-03-02T10:27:01;10.93;;;5.50;;
71166;SDS011;58864;45.928;20.078;2024-03-02T10:29:29;13.60;;;5.95;;
71166;SDS011;58864;45.928;20.078;2024-03-02T10:31:56;15.00;;;6.30;;
71166;SDS011;58864;45.928;20.078;2024-03-02T10:34:23;15.53;;;5.70;;
71166;SDS011;58864;45.928;20.078;2024-03-02T10:36:49;9.80;;;5.05;;
71166;SDS011;58864;45.928;20.078;2024-03-02T10:39:15;11.27;;;4.60;;
71166;SDS011;58864;45.928;20.078;2024-03-02T10:41:41;15.05;;;5.53;;
71166;SDS011;58864;45.928;20.078;2024-03-02T10:44:07;16.83;;;6.20;;
71166;SDS011;58864;45.928;20.078;2024-03-02T10:46:35;12.93;;;5.53;;
71166;SDS011;58864;45.928;20.078;2024-03-02T10:49:03;12.30;;;5.15;;
71166;SDS011;58864;45.928;20.078;2024-03-02T10:51:30;13.93;;;6.05;;
71166;SDS011;58864;45.928;20.078;2024-03-02T10:53:57;13.55;;;6.00;;
71166;SDS011;58864;45.928;20.078;2024-03-02T10:56:27;17.67;;;6.43;;
71166;SDS011;58864;45.928;20.078;2024-03-02T10:58:55;12.77;;;6.30;;
71166;SDS011;58864;45.928;20.078;2024-03-02T11:01:27;18.25;;;6.80;;
71166;SDS011;58864;45.928;20.078;2024-03-02T11:03:54;13.48;;;6.63;;
71166;SDS011;58864;45.928;20.078;2024-03-02T11:06:23;17.15;;;6.60;;
71166;SDS011;58864;45.928;20.078;2024-03-02T11:08:50;14.02;;;6.80;;
71166;SDS011;58864;45.928;20.078;2024-03-02T11:11:22;18.07;;;7.97;;
71166;SDS011;58864;45.928;20.078;2024-03-02T11:13:53;11.82;;;6.28;;
71166;SDS011;58864;45.928;20.078;2024-03-02T11:16:22;13.88;;;6.20;;
71166;SDS011;58864;45.928;20.078;2024-03-02T11:18:54;17.73;;;8.07;;
71166;SDS011;58864;45.928;20.078;2024-03-02T11:21:20;12.90;;;7.20;;
71166;SDS011;58864;45.928;20.078;2024-03-02T11:23:48;12.83;;;6.80;;
71166;SDS011;58864;45.928;20.078;2024-03-02T11:26:17;13.52;;;6.63;;
71166;SDS011;58864;45.928;20.078;2024-03-02T11:28:43;15.25;;;7.45;;
71166;SDS011;58864;45.928;20.078;2024-03-02T11:31:09;15.18;;;7.05;;
71166;SDS011;58864;45.928;20.078;2024-03-02T11:33:35;20.92;;;6.95;;
71166;SDS011;58864;45.928;20.078;2024-03-02T11:36:01;14.20;;;7.10;;
71166;SDS011;58864;45.928;20.078;2024-03-02T11:38:28;18.80;;;9.07;;
71166;SDS011;58864;45.928;20.078;2024-03-02T11:40:57;20.42;;;10.07;;
71166;SDS011;58864;45.928;20.078;2024-03-02T11:43:23;23.05;;;10.50;;
71166;SDS011;58864;45.928;20.078;2024-03-02T11:45:56;15.27;;;8.13;;
71166;SDS011;58864;45.928;20.078;2024-03-02T11:48:23;16.87;;;9.47;;
71166;SDS011;58864;45.928;20.078;2024-03-02T11:50:50;20.83;;;9.77;;
71166;SDS011;58864;45.928;20.078;2024-03-02T11:53:17;19.88;;;10.60;;
71166;SDS011;58864;45.928;20.078;2024-03-02T11:55:45;18.42;;;10.10;;
71166;SDS011;58864;45.928;20.078;2024-03-02T11:58:13;23.00;;;12.88;;
71166;SDS011;58864;45.928;20.078;2024-03-02T12:00:39;23.27;;;12.90;;
71166;SDS011;58864;45.928;20.078;2024-03-02T12:03:06;20.95;;;11.13;;
71166;SDS011;58864;45.928;20.078;2024-03-02T12:05:33;22.85;;;12.05;;
71166;SDS011;58864;45.928;20.078;2024-03-02T12:08:00;23.92;;;12.18;;
71166;SDS011;58864;45.928;20.078;2024-03-02T12:10:26;24.80;;;12.75;;
71166;SDS011;58864;45.928;20.078;2024-03-02T12:12:56;23.90;;;12.77;;
71166;SDS011;58864;45.928;20.078;2024-03-02T12:15:24;21.83;;;12.13;;
71166;SDS011;58864;45.928;20.078;2024-03-02T12:17:52;21.77;;;12.05;;
71166;SDS011;58864;45.928;20.078;2024-03-02T12:20:19;25.55;;;12.77;;
71166;SDS011;58864;45.928;20.078;2024-03-02T12:22:45;22.50;;;12.70;;
71166;SDS011;58864;45.928;20.078;2024-03-02T12:25:11;23.07;;;12.47;;
71166;SDS011;58864;45.928;20.078;2024-03-02T12:27:38;23.50;;;12.05;;
71166;SDS011;58864;45.928;20.078;2024-03-02T12:30:04;23.13;;;12.18;;
71166;SDS011;58864;45.928;20.078;2024-03-02T12:32:34;22.50;;;12.05;;
71166;SDS011;58864;45.928;20.078;2024-03-02T12:35:00;23.48;;;11.68;;
71166;SDS011;58864;45.928;20.078;2024-03-02T12:37:26;26.47;;;14.43;;
71166;SDS011;58864;45.928;20.078;2024-03-02T12:39:53;26.58;;;12.77;;
71166;SDS011;58864;45.928;20.078;2024-03-02T12:42:18;25.30;;;12.85;;
71166;SDS011;58864;45.928;20.078;2024-03-02T12:44:44;24.45;;;12.95;;
71166;SDS011;58864;45.928;20.078;2024-03-02T12:47:10;23.95;;;13.30;;
71166;SDS011;58864;45.928;20.078;2024-03-02T12:49:41;23.90;;;12.63;;
71166;SDS011;58864;45.928;20.078;2024-03-02T12:52:07;24.80;;;12.90;;
71166;SDS011;58864;45.928;20.078;2024-03-02T12:54:33;20.48;;;11.88;;
71166;SDS011;58864;45.928;20.078;2024-03-02T12:56:59;22.63;;;11.80;;
71166;SDS011;58864;45.928;20.078;2024-03-02T12:59:25;25.20;;;11.48;;
71166;SDS011;58864;45.928;20.078;2024-03-02T13:01:51;22.93;;;11.10;;
71166;SDS011;58864;45.928;20.078;2024-03-02T13:04:21;20.08;;;11.20;;
71166;SDS011;58864;45.928;20.078;2024-03-02T13:06:49;23.10;;;10.85;;
71166;SDS011;58864;45.928;20.078;2024-03-02T13:09:15;19.83;;;10.50;;
71166;SDS011;58864;45.928;20.078;2024-03-02T13:11:41;16.95;;;10.25;;
71166;SDS011;58864;45.928;20.078;2024-03-02T13:14:07;20.43;;;11.77;;
71166;SDS011;58864;45.928;20.078;2024-03-02T13:16:37;41.15;;;16.27;;
71166;SDS011;58864;45.928;20.078;2024-03-02T13:19:04;31.33;;;15.77;;
71166;SDS011;58864;45.928;20.078;2024-03-02T13:21:32;27.75;;;13.68;;
71166;SDS011;58864;45.928;20.078;2024-03-02T13:24:00;21.10;;;11.65;;
71166;SDS011;58864;45.928;20.078;2024-03-02T13:26:27;18.67;;;11.13;;
71166;SDS011;58864;45.928;20.078;2024-03-02T13:28:53;19.02;;;11.48;;
71166;SDS011;58864;45.928;20.078;2024-03-02T13:31:19;22.45;;;11.60;;
71166;SDS011;58864;45.928;20.078;2024-03-02T13:33:45;22.08;;;10.75;;
71166;SDS011;58864;45.928;20.078;2024-03-02T13:36:11;21.63;;;11.52;;
71166;SDS011;58864;45.928;20.078;2024-03-02T13:38:37;18.80;;;10.47;;
71166;SDS011;58864;45.928;20.078;2024-03-02T13:41:04;16.33;;;8.68;;
71166;SDS011;58864;45.928;20.078;2024-03-02T13:43:30;17.90;;;9.35;;
71166;SDS011;58864;45.928;20.078;2024-03-02T13:45:57;21.30;;;10.63;;
71166;SDS011;58864;45.928;20.078;2024-03-02T13:48:23;21.10;;;11.23;;
71166;SDS011;58864;45.928;20.078;2024-03-02T13:50:50;20.10;;;9.80;;
71166;SDS011;58864;45.928;20.078;2024-03-02T13:53:16;17.75;;;10.23;;
71166;SDS011;58864;45.928;20.078;2024-03-02T13:55:42;17.42;;;10.00;;
71166;SDS011;58864;45.928;20.078;2024-03-02T13:58:09;18.73;;;10.10;;
71166;SDS011;58864;45.928;20.078;2024-03-02T14:00:35;19.63;;;10.43;;
71166;SDS011;58864;45.928;20.078;2024-03-02T14:03:02;16.80;;;9.00;;
71166;SDS011;58864;45.928;20.078;2024-03-02T14:05:29;14.63;;;8.68;;
71166;SDS011;58864;45.928;20.078;2024-03-02T14:07:55;18.27;;;8.85;;
71166;SDS011;58864;45.928;20.078;2024-03-02T14:10:21;15.45;;;8.82;;
71166;SDS011;58864;45.928;20.078;2024-03-02T14:12:47;17.33;;;8.90;;
71166;SDS011;58864;45.928;20.078;2024-03-02T14:15:15;18.50;;;9.30;;
71166;SDS011;58864;45.928;20.078;2024-03-02T14:17:41;18.27;;;9.43;;
71166;SDS011;58864;45.928;20.078;2024-03-02T14:20:07;22.23;;;10.27;;
71166;SDS011;58864;45.928;20.078;2024-03-02T14:22:34;16.77;;;8.77;;
71166;SDS011;58864;45.928;20.078;2024-03-02T14:25:01;22.63;;;10.95;;
71166;SDS011;58864;45.928;20.078;2024-03-02T14:27:27;20.80;;;10.40;;
71166;SDS011;58864;45.928;20.078;2024-03-02T14:29:53;18.48;;;9.07;;